Time;durP1;ratioP1;P1;durP2;ratioP2;P2;SDS_P1;SDS_P2;PMS_P1;PMS_P2;Temp;Humidity;BMP_temperature;BMP_pressure;BME280_temperature;BME280_humidity;BME280_pressure;Samples;Min_cycle;Max_cycle;Signal;HPM_P1;HPM_P2
2021/11/12 00:14:50;;;;;;;36.53;17.42;;;;;;;1.67;nan;101206.66;4992578;28;20061;-75
2021/11/12 00:17:17;;;;;;;30.05;16.40;;;;;;;1.64;nan;101207.63;4992749;28;20030;-75
2021/11/12 00:19:43;;;;;;;28.17;15.73;;;;;;;1.66;nan;101204.94;4992650;28;20061;-75
2021/11/12 00:22:08;;;;;;;34.53;17.67;;;;;;;1.68;nan;101214.38;4991376;28;20065;-76
2021/11/12 00:24:34;;;;;;;37.17;18.23;;;;;;;1.59;nan;101208.78;4992336;28;20061;-75
2021/11/12 00:27:01;;;;;;;33.38;16.70;;;;;;;1.60;nan;101211.34;4991811;28;20042;-76
2021/11/12 00:35:41;;;;;;;26.42;15.07;;;;;;;1.53;nan;101212.56;4992122;28;20047;-75
2021/11/12 00:45:57;;;;;;;27.90;14.95;;;;;;;1.54;nan;101213.41;4989947;28;20181;-76
2021/11/12 00:48:26;;;;;;;25.30;14.68;;;;;;;1.39;nan;101210.63;4990372;28;20120;-75
2021/11/12 00:51:09;;;;;;;27.90;14.93;;;;;;;1.43;nan;101204.34;4993217;28;20112;-76
2021/11/12 00:53:49;;;;;;;23.52;13.30;;;;;;;1.34;nan;101211.78;4991276;28;20034;-75
2021/11/12 00:56:14;;;;;;;24.25;13.75;;;;;;;1.31;nan;101207.56;4990633;28;20406;-75
2021/11/12 00:58:40;;;;;;;22.50;12.57;;;;;;;1.42;nan;101201.81;4991889;28;20039;-75
2021/11/12 01:01:05;;;;;;;25.58;15.40;;;;;;;1.41;nan;101194.94;4989621;28;20076;-76
2021/11/12 01:03:31;;;;;;;22.55;12.90;;;;;;;1.44;nan;101194.78;4990812;28;20031;-75
2021/11/12 01:05:57;;;;;;;24.10;14.73;;;;;;;1.46;nan;101191.16;4995321;28;20038;-75
2021/11/12 01:08:22;;;;;;;23.90;13.70;;;;;;;1.48;nan;101191.09;4990468;28;20388;-76
2021/11/12 01:10:47;;;;;;;26.85;14.60;;;;;;;1.49;nan;101188.41;4991042;28;20030;-75
2021/11/12 01:13:13;;;;;;;23.92;13.73;;;;;;;1.46;nan;101187.72;4990673;28;20472;-76
2021/11/12 01:15:39;;;;;;;25.30;14.40;;;;;;;1.46;nan;101188.56;4993203;28;20043;-75
2021/11/12 01:18:04;;;;;;;24.08;14.05;;;;;;;1.50;nan;101189.22;4991065;28;20454;-75
2021/11/12 01:20:29;;;;;;;27.00;15.57;;;;;;;1.60;nan;101190.47;4989318;28;20085;-76
2021/11/12 01:22:55;;;;;;;54.15;19.50;;;;;;;1.62;nan;101188.63;4991181;28;20054;-76
2021/11/12 01:25:21;;;;;;;41.58;17.55;;;;;;;1.53;nan;101185.66;4989108;28;20057;-75
2021/11/12 01:27:48;;;;;;;35.95;16.30;;;;;;;1.43;nan;101185.25;4992312;28;20054;-75
2021/11/12 01:30:15;;;;;;;37.45;16.02;;;;;;;1.42;nan;101181.81;4999872;28;20196;-75
2021/11/12 01:32:42;;;;;;;33.45;16.17;;;;;;;1.40;nan;101177.59;4989838;28;20045;-75
2021/11/12 01:35:10;;;;;;;38.08;16.00;;;;;;;1.37;nan;101175.16;4991665;28;20547;-75
2021/11/12 01:37:36;;;;;;;27.38;14.82;;;;;;;1.36;nan;101174.31;4990535;28;20046;-75
2021/11/12 01:40:07;;;;;;;28.27;15.13;;;;;;;1.28;nan;101174.66;4990425;28;20042;-75
2021/11/12 01:51:45;;;;;;;30.85;15.07;;;;;;;1.37;nan;101173.38;4933151;29;20035;-75
2021/11/12 01:54:36;;;;;;;27.20;14.25;;;;;;;1.39;nan;101173.31;4980528;28;20073;-75
2021/11/12 01:57:24;;;;;;;30.88;16.23;;;;;;;1.34;nan;101162.28;4990239;28;20122;-75
2021/11/12 01:59:51;;;;;;;52.38;18.25;;;;;;;1.46;nan;101166.88;4975999;28;20027;-75
2021/11/12 02:02:17;;;;;;;28.27;16.23;;;;;;;1.29;nan;101162.50;4987970;28;20034;-75
2021/11/12 02:04:43;;;;;;;28.33;15.20;;;;;;;1.26;nan;101158.31;4990559;28;20046;-75
2021/11/12 02:07:09;;;;;;;25.02;14.68;;;;;;;1.20;nan;101156.00;4988862;28;20193;-75
2021/11/12 02:09:36;;;;;;;21.35;13.75;;;;;;;1.24;nan;101148.84;4992458;28;20042;-74
2021/11/12 02:12:09;;;;;;;23.77;14.18;;;;;;;1.29;nan;101146.88;4988513;28;20034;-75
2021/11/12 02:14:34;;;;;;;21.23;13.25;;;;;;;1.30;nan;101143.34;4981427;28;20039;-75
2021/11/12 02:17:11;;;;;;;25.20;13.95;;;;;;;1.34;nan;101147.50;4973565;28;20061;-75
2021/11/12 02:19:37;;;;;;;25.48;13.95;;;;;;;1.41;nan;101150.63;4969192;28;20197;-75
2021/11/12 02:22:08;;;;;;;28.80;14.25;;;;;;;1.42;nan;101139.28;4988253;28;20118;-75
2021/11/12 02:24:39;;;;;;;24.80;14.07;;;;;;;1.32;nan;101136.28;4988439;28;20037;-75
2021/11/12 02:27:05;;;;;;;;;;;;;;;1.38;nan;101141.22;4990871;28;20054;-75
2021/11/12 02:29:31;;;;;;;26.77;13.82;;;;;;;1.28;nan;101142.56;4996374;28;20382;-75
2021/11/12 02:31:57;;;;;;;28.88;14.57;;;;;;;1.35;nan;101141.34;4989773;28;20038;-75
2021/11/12 02:34:22;;;;;;;30.00;15.07;;;;;;;1.34;nan;101142.28;4990040;28;20037;-75
2021/11/12 02:36:48;;;;;;;33.65;15.50;;;;;;;1.35;nan;101148.31;4989552;28;20114;-75
2021/11/12 02:39:14;;;;;;;25.45;14.40;;;;;;;1.24;nan;101146.25;4989977;28;20403;-74
2021/11/12 02:41:42;;;;;;;23.67;13.98;;;;;;;1.20;nan;101147.34;4989349;28;20038;-74
2021/11/12 02:44:08;;;;;;;27.33;14.80;;;;;;;1.27;nan;101152.16;4990064;28;20050;-74
2021/11/12 02:46:35;;;;;;;28.70;16.02;;;;;;;1.24;nan;101152.31;4989338;28;20026;-74
2021/11/12 02:49:01;;;;;;;24.92;13.70;;;;;;;1.17;nan;101150.06;4990227;28;20479;-74
2021/11/12 02:51:31;;;;;;;24.55;13.90;;;;;;;1.10;nan;101153.91;4994574;28;20042;-74
2021/11/12 02:53:59;;;;;;;27.67;14.57;;;;;;;1.21;nan;101156.81;4989448;28;20038;-74
2021/11/12 02:56:32;;;;;;;21.10;13.68;;;;;;;1.12;nan;101146.84;4989354;28;20368;-75
2021/11/12 02:59:04;;;;;;;23.08;13.15;;;;;;;1.15;nan;101154.53;4988920;28;20137;-74
2021/11/12 03:01:33;;;;;;;23.00;13.73;;;;;;;1.20;nan;101160.34;4989945;28;20030;-74
2021/11/12 03:03:59;;;;;;;20.10;13.02;;;;;;;1.16;nan;101159.66;4989336;28;20043;-75
2021/11/12 03:06:25;;;;;;;24.67;13.85;;;;;;;1.15;nan;101157.16;4987144;28;20446;-74
2021/11/12 03:08:52;;;;;;;21.85;13.45;;;;;;;1.12;nan;101155.53;4989541;28;20042;-74
2021/11/12 03:11:18;;;;;;;21.42;12.38;;;;;;;1.06;nan;101156.66;4989988;28;20248;-74
2021/11/12 03:13:47;;;;;;;21.08;12.60;;;;;;;1.11;nan;101147.78;4987449;28;20034;-74
2021/11/12 03:16:14;;;;;;;21.42;12.05;;;;;;;1.18;nan;101146.56;4996790;28;20053;-74
2021/11/12 03:18:41;;;;;;;26.77;13.73;;;;;;;1.21;nan;101141.19;4993447;28;20121;-74
2021/11/12 03:21:08;;;;;;;27.25;13.82;;;;;;;1.21;nan;101147.25;4988990;28;20046;-75
2021/11/12 03:23:41;;;;;;;21.13;13.00;;;;;;;1.15;nan;101142.34;4989430;28;20559;-75
2021/11/12 03:26:23;;;;;;;20.75;12.13;;;;;;;1.10;nan;101146.09;4987809;28;20085;-75
2021/11/12 04:01:33;;;;;;;24.10;13.30;;;;;;;1.00;nan;101112.72;4985290;28;20454;-75
2021/11/12 04:04:52;;;;;;;26.80;13.68;;;;;;;1.00;nan;101111.84;4989224;28;20129;-75
2021/11/12 04:07:10;;;;;;;28.38;14.48;;;;;;;0.95;nan;101116.44;4969930;28;20377;-75
2021/11/12 04:20:46;;;;;;;25.25;13.60;;;;;;;0.88;nan;101128.91;4968334;28;20634;-75
2021/11/12 05:50:24;;;;;;;17.70;10.93;;;;;;;0.54;nan;101057.66;4993609;28;20517;-75
2021/11/12 05:55:34;;;;;;;21.20;11.55;;;;;;;0.72;nan;101057.72;4991015;28;20507;-75
2021/11/12 05:57:59;;;;;;;18.98;11.77;;;;;;;0.67;nan;101064.88;4989591;28;20121;-75
2021/11/12 06:00:26;;;;;;;19.75;11.65;;;;;;;0.75;nan;101074.00;4987942;28;20524;-75
2021/11/12 06:02:52;;;;;;;18.95;12.10;;;;;;;0.80;nan;101073.78;4990094;28;20037;-75
2021/11/12 06:05:18;;;;;;;22.50;12.00;;;;;;;0.83;nan;101071.03;4990600;28;20030;-75
2021/11/12 06:07:47;;;;;;;20.05;12.18;;;;;;;0.73;nan;101073.22;4991354;28;20030;-74
2021/11/12 06:10:13;;;;;;;21.13;11.85;;;;;;;0.72;nan;101070.72;4991101;28;20388;-75
2021/11/12 06:12:38;;;;;;;22.48;11.63;;;;;;;0.70;nan;101065.59;4990139;28;20042;-75
2021/11/12 06:15:04;;;;;;;17.92;10.82;;;;;;;0.69;nan;101065.66;4990829;28;20784;-75
2021/11/12 06:17:30;;;;;;;17.73;10.55;;;;;;;0.77;nan;101066.97;5006545;28;20402;-75
2021/11/12 06:19:55;;;;;;;17.67;10.75;;;;;;;0.83;nan;101073.63;4990313;28;20565;-75
2021/11/12 06:22:21;;;;;;;19.00;11.70;;;;;;;0.80;nan;101074.63;4989620;28;20042;-75
2021/11/12 06:24:46;;;;;;;18.90;11.52;;;;;;;0.77;nan;101066.13;4990066;28;20057;-75
2021/11/12 06:27:12;;;;;;;18.77;11.00;;;;;;;0.86;nan;101068.28;4990370;28;20546;-74
2021/11/12 06:29:37;;;;;;;20.10;11.98;;;;;;;0.83;nan;101065.81;4998828;28;20594;-75
2021/11/12 06:32:03;;;;;;;22.48;12.98;;;;;;;0.85;nan;101067.41;4989597;28;20037;-75
2021/11/12 06:34:29;;;;;;;18.98;11.90;;;;;;;0.85;nan;101066.59;4990283;28;20404;-74
2021/11/12 06:36:55;;;;;;;22.23;12.20;;;;;;;0.83;nan;101058.88;4988876;28;20035;-74
2021/11/12 06:39:20;;;;;;;22.77;11.82;;;;;;;0.84;nan;101065.75;4990043;28;20038;-74
2021/11/12 06:49:50;;;;;;;27.08;14.70;;;;;;;1.00;nan;101052.81;4980854;28;20093;-74
2021/11/12 06:52:16;;;;;;;42.30;17.52;;;;;;;1.08;nan;101060.22;4988984;28;20038;-74
2021/11/12 06:54:45;;;;;;;47.47;17.33;;;;;;;1.00;nan;101062.38;4989472;28;20038;-74
2021/11/12 06:57:11;;;;;;;37.75;17.33;;;;;;;0.95;nan;101053.94;4989702;28;20069;-74
2021/11/12 06:59:36;;;;;;;47.55;16.05;;;;;;;0.93;nan;101056.66;4989879;28;20398;-74
2021/11/12 07:02:01;;;;;;;25.63;14.38;;;;;;;0.83;nan;101063.22;4988819;28;20046;-74
2021/11/12 07:04:27;;;;;;;36.85;15.23;;;;;;;0.97;nan;101055.56;4989002;28;20041;-74
2021/11/12 07:06:52;;;;;;;32.70;14.85;;;;;;;0.91;nan;101050.66;4988400;28;20037;-75
2021/11/12 07:09:17;;;;;;;25.58;13.70;;;;;;;0.94;nan;101053.13;4988521;28;20027;-74
2021/11/12 07:11:42;;;;;;;32.65;14.98;;;;;;;1.06;nan;101054.25;4994398;28;20395;-74
2021/11/12 07:14:08;;;;;;;39.60;17.13;;;;;;;1.11;nan;101051.41;4988945;28;20062;-74
2021/11/12 07:16:33;;;;;;;40.08;17.35;;;;;;;1.14;nan;101057.28;4999661;28;20525;-74
2021/11/12 07:19:00;;;;;;;30.10;15.65;;;;;;;0.98;nan;101056.41;4995514;28;20038;-75
2021/11/12 07:21:26;;;;;;;32.13;15.00;;;;;;;0.98;nan;101059.84;4992484;28;20089;-75
2021/11/12 07:23:54;;;;;;;42.42;16.88;;;;;;;1.12;nan;101059.16;4988694;28;20038;-75
2021/11/12 07:26:19;;;;;;;30.33;15.38;;;;;;;0.98;nan;101052.03;4988622;28;20089;-75
2021/11/12 07:28:48;;;;;;;44.80;18.02;;;;;;;1.05;nan;101057.78;4985471;28;20039;-75
2021/11/12 07:31:15;;;;;;;41.13;16.73;;;;;;;1.00;nan;101050.22;4988030;28;20085;-75
2021/11/12 07:33:41;;;;;;;28.98;14.90;;;;;;;0.92;nan;101041.94;4989476;28;20503;-75
2021/11/12 07:38:44;;;;;;;30.63;14.98;;;;;;;1.01;nan;101041.47;4990236;28;20030;-74
2021/11/12 07:48:57;;;;;;;39.80;16.60;;;;;;;1.20;nan;101054.41;4993474;28;20081;-75
2021/11/12 07:51:22;;;;;;;31.92;15.88;;;;;;;1.23;nan;101051.63;4989549;28;20042;-75
2021/11/12 07:53:49;;;;;;;32.58;15.00;;;;;;;1.21;nan;101057.84;4993145;28;20136;-75
2021/11/12 07:56:14;;;;;;;37.20;16.20;;;;;;;1.40;nan;101055.13;4992158;28;20045;-75
2021/11/12 07:58:39;;;;;;;28.95;14.48;;;;;;;1.34;nan;101058.91;4984424;28;20069;-75
2021/11/12 08:01:05;;;;;;;28.38;13.75;;;;;;;1.43;nan;101063.63;4989547;28;20062;-75
2021/11/12 08:03:31;;;;;;;30.17;14.55;;;;;;;1.52;nan;101059.69;4993252;28;20030;-75
2021/11/12 08:05:58;;;;;;;30.00;14.85;;;;;;;1.51;nan;101054.56;4991247;28;20049;-75
2021/11/12 08:08:25;;;;;;;34.90;14.70;;;;;;;1.64;nan;101060.81;4987439;28;20429;-74
2021/11/12 08:13:25;;;;;;;31.45;14.07;;;;;;;1.64;nan;101058.19;4987895;28;20113;-75
2021/11/12 08:16:05;;;;;;;34.97;15.43;;;;;;;1.72;nan;101049.97;4989231;28;20137;-75
2021/11/12 08:21:22;;;;;;;32.22;15.43;;;;;;;1.65;nan;101059.91;4989310;28;20045;-74
2021/11/12 08:24:03;;;;;;;31.45;14.27;;;;;;;1.68;nan;101062.34;4992738;28;20039;-74
2021/11/12 08:26:47;;;;;;;;;;;;;;;1.74;nan;101063.75;4988796;28;20049;-74
2021/11/12 08:42:26;;;;;;;36.03;16.63;;;;;;;1.82;nan;101044.19;4990714;28;20102;-75
2021/11/12 08:45:02;;;;;;;34.33;15.07;;;;;;;1.92;nan;101045.38;4988763;28;20143;-74
2021/11/12 08:47:31;;;;;;;30.52;14.75;;;;;;;2.00;nan;101044.09;4993014;28;20348;-74
2021/11/12 08:49:58;;;;;;;33.33;14.50;;;;;;;2.06;nan;101044.63;4992923;28;20023;-74
2021/11/12 08:52:25;;;;;;;37.83;17.50;;;;;;;2.09;nan;101035.78;4993494;28;20125;-74
2021/11/12 08:54:50;;;;;;;40.33;16.58;;;;;;;2.09;nan;101034.00;5006859;28;20050;-74
2021/11/12 08:57:16;;;;;;;44.53;18.15;;;;;;;2.00;nan;101033.66;4999031;28;20030;-74
2021/11/12 08:59:50;;;;;;;40.30;17.80;;;;;;;2.04;nan;101019.53;4991852;28;20038;-74
2021/11/12 09:02:19;;;;;;;36.17;17.10;;;;;;;2.05;nan;101021.22;4990317;28;20027;-74
2021/11/12 09:04:48;;;;;;;41.78;18.52;;;;;;;1.95;nan;101023.50;4990718;28;20038;-74
2021/11/12 09:07:17;;;;;;;43.30;18.27;;;;;;;1.99;nan;101011.97;4990520;28;20531;-74
2021/11/12 09:09:44;;;;;;;45.10;18.67;;;;;;;1.95;nan;101014.84;4991874;28;20031;-74
2021/11/12 09:12:12;;;;;;;43.60;19.52;;;;;;;1.90;nan;101013.31;4990828;28;20088;-74
2021/11/12 09:14:43;;;;;;;44.90;19.52;;;;;;;1.96;nan;101001.72;4992099;28;20042;-74
2021/11/12 09:17:09;;;;;;;38.47;17.13;;;;;;;2.00;nan;100999.75;4992850;28;20037;-74
2021/11/12 09:19:46;;;;;;;41.30;19.38;;;;;;;1.95;nan;100993.97;4991335;28;20102;-74
2021/11/12 09:22:14;;;;;;;35.80;16.85;;;;;;;2.02;nan;100995.31;4988740;28;20170;-74
2021/11/12 09:24:39;;;;;;;36.28;17.83;;;;;;;2.05;nan;100987.31;4989561;28;20382;-74
2021/11/12 09:27:05;;;;;;;35.97;17.98;;;;;;;2.09;nan;100981.84;4991301;28;20038;-74
2021/11/12 09:29:31;;;;;;;35.78;17.15;;;;;;;2.11;nan;100986.97;4992819;28;20519;-74
2021/11/12 09:31:58;;;;;;;36.50;17.05;;;;;;;2.22;nan;100984.59;4989607;28;20045;-75
2021/11/12 09:34:23;;;;;;;32.42;15.77;;;;;;;2.35;nan;100995.19;4979792;28;20042;-74
2021/11/12 09:36:48;;;;;;;28.05;14.70;;;;;;;2.42;nan;100993.06;4993859;28;20526;-74
2021/11/12 09:39:14;;;;;;;31.92;16.33;;;;;;;2.41;nan;100981.78;4989852;28;20065;-75
2021/11/12 09:41:39;;;;;;;29.20;15.23;;;;;;;2.46;nan;100978.91;4988901;28;20499;-74
2021/11/12 09:44:06;;;;;;;37.08;16.90;;;;;;;2.46;nan;100976.31;4989681;28;20038;-74
2021/11/12 09:46:32;;;;;;;34.72;16.88;;;;;;;2.47;nan;100977.97;4980540;28;20503;-74
2021/11/12 09:49:00;;;;;;;29.55;15.30;;;;;;;2.51;nan;100971.66;4982637;28;20050;-74
2021/11/12 09:51:26;;;;;;;36.80;16.60;;;;;;;2.63;nan;100970.94;4985700;28;20035;-74
2021/11/12 09:53:52;;;;;;;36.85;16.70;;;;;;;2.70;nan;100963.59;4989105;28;20121;-74
2021/11/12 09:56:17;;;;;;;35.92;17.27;;;;;;;2.59;nan;100963.38;4987960;28;20129;-74
2021/11/12 09:58:50;;;;;;;33.65;15.90;;;;;;;2.56;nan;100961.78;4986393;28;20030;-75
2021/11/12 10:01:16;;;;;;;35.60;17.13;;;;;;;2.62;nan;100971.88;4977811;28;20478;-75
2021/11/12 10:03:45;;;;;;;34.17;16.65;;;;;;;2.62;nan;100971.88;4983233;28;20030;-76
2021/11/12 10:06:20;;;;;;;27.95;14.45;;;;;;;2.70;nan;100968.81;4982906;28;20049;-75
2021/11/12 10:08:46;;;;;;;27.77;14.13;;;;;;;2.71;nan;100965.25;4984700;28;20057;-75
2021/11/12 10:11:21;;;;;;;30.35;15.13;;;;;;;2.80;nan;100963.88;4990505;28;20122;-76
2021/11/12 10:13:48;;;;;;;29.35;14.63;;;;;;;2.85;nan;100956.63;4991272;28;20126;-76
2021/11/12 10:19:08;;;;;;;37.90;18.48;;;;;;;2.79;nan;100957.84;4989108;28;20073;-76
2021/11/12 10:21:38;;;;;;;35.22;17.98;;;;;;;2.77;nan;100964.91;4987885;28;20513;-76
2021/11/12 10:24:15;;;;;;;33.30;16.52;;;;;;;2.79;nan;100963.06;4988441;28;20030;-76
2021/11/12 10:26:42;;;;;;;37.55;19.30;;;;;;;2.73;nan;100958.19;4985913;28;20044;-76
2021/11/12 10:29:11;;;;;;;36.92;19.70;;;;;;;2.76;nan;100956.25;4989737;28;20057;-76
2021/11/12 10:31:49;;;;;;;38.13;19.10;;;;;;;2.66;nan;100952.47;4988240;28;20034;-76
2021/11/12 10:34:22;;;;;;;40.53;20.02;;;;;;;2.78;nan;100948.31;4987670;28;20380;-76
2021/11/12 10:36:55;;;;;;;44.00;20.17;;;;;;;2.85;nan;100940.94;4987626;28;20041;-76
2021/11/12 10:39:37;;;;;;;44.83;21.65;;;;;;;2.82;nan;100936.75;4988243;28;20125;-76
2021/11/12 10:42:07;;;;;;;42.65;21.33;;;;;;;2.71;nan;100936.53;4986900;28;20109;-76
2021/11/12 10:44:43;;;;;;;42.17;21.98;;;;;;;2.70;nan;100934.88;4976969;28;20515;-76
2021/11/12 10:47:09;;;;;;;42.05;21.02;;;;;;;2.68;nan;100939.34;4987070;28;20058;-75
2021/11/12 10:49:38;;;;;;;40.95;21.27;;;;;;;2.55;nan;100931.38;4992116;28;20033;-75
2021/11/12 10:52:10;;;;;;;44.70;21.67;;;;;;;2.70;nan;100932.25;4989368;28;20061;-76
2021/11/12 10:54:40;;;;;;;;;;;;;;;2.77;nan;100923.13;4989090;28;20053;-76
2021/11/12 10:57:07;;;;;;;36.63;17.67;;;;;;;2.74;nan;100918.94;4986775;28;19956;-75
2021/11/12 10:59:36;;;;;;;37.40;19.10;;;;;;;2.74;nan;100916.31;4988586;28;20030;-75
2021/11/12 11:02:03;;;;;;;41.70;19.25;;;;;;;2.80;nan;100909.88;4987454;28;20030;-75
2021/11/12 11:04:30;;;;;;;47.78;22.73;;;;;;;2.64;nan;100898.66;4985785;28;20431;-75
2021/11/12 11:07:19;;;;;;;39.75;20.20;;;;;;;2.65;nan;100906.44;4987447;28;20047;-75
2021/11/12 11:09:44;;;;;;;42.58;20.38;;;;;;;2.78;nan;100901.28;4987955;28;20403;-75
2021/11/12 11:12:40;;;;;;;45.67;21.67;;;;;;;2.86;nan;100906.91;4987793;28;20039;-75
2021/11/12 11:15:18;;;;;;;42.25;20.70;;;;;;;2.81;nan;100900.25;4990584;28;20046;-75
2021/11/12 11:18:06;;;;;;;41.92;19.80;;;;;;;2.79;nan;100889.06;4992344;28;20377;-76
2021/11/12 11:20:33;;;;;;;42.72;20.75;;;;;;;2.81;nan;100889.81;4986586;28;20089;-77
2021/11/12 11:23:00;;;;;;;40.42;20.90;;;;;;;2.85;nan;100896.53;4993963;28;20092;-77
2021/11/12 11:25:28;;;;;;;42.78;21.38;;;;;;;2.92;nan;100884.78;4997261;28;20140;-77
2021/11/12 11:27:59;;;;;;;50.60;23.02;;;;;;;3.01;nan;100878.19;4993926;28;20114;-74
2021/11/12 11:30:26;;;;;;;39.83;20.65;;;;;;;2.92;nan;100890.03;4991943;28;22394;-74
2021/11/12 11:32:52;;;;;;;41.95;20.60;;;;;;;2.92;nan;100875.19;4991096;28;20461;-76
2021/11/12 11:35:20;;;;;;;45.58;22.08;;;;;;;2.99;nan;100878.25;4990852;28;20039;-75
2021/11/12 11:37:46;;;;;;;44.85;22.30;;;;;;;2.91;nan;100881.34;4990969;28;20046;-75
2021/11/12 11:40:14;;;;;;;52.30;24.55;;;;;;;2.90;nan;100873.59;4989722;28;20050;-75
2021/11/12 11:42:42;;;;;;;44.45;22.73;;;;;;;2.75;nan;100873.59;4989427;28;20030;-75
2021/11/12 11:45:08;;;;;;;49.53;23.75;;;;;;;2.78;nan;100875.19;4988852;28;20043;-75
2021/11/12 11:47:34;;;;;;;44.13;21.35;;;;;;;2.80;nan;100872.50;4990801;28;20503;-75
2021/11/12 11:49:59;;;;;;;45.33;22.38;;;;;;;2.90;nan;100869.19;4991065;28;20096;-75
2021/11/12 11:52:27;;;;;;;47.03;23.48;;;;;;;2.93;nan;100855.13;4988116;28;20042;-74
2021/11/12 11:54:54;;;;;;;45.42;22.55;;;;;;;2.96;nan;100855.78;4990695;28;20035;-74
2021/11/12 11:57:23;;;;;;;39.20;20.48;;;;;;;2.95;nan;100858.47;4990367;28;20031;-74
2021/11/12 11:59:49;;;;;;;42.05;21.25;;;;;;;2.93;nan;100857.72;4990932;28;20069;-74
2021/11/12 12:02:21;;;;;;;42.00;22.42;;;;;;;2.76;nan;100846.56;4987478;28;20041;-75
2021/11/12 12:04:49;;;;;;;42.95;22.45;;;;;;;2.72;nan;100839.84;4990610;28;20041;-75
2021/11/12 12:07:22;;;;;;;42.38;22.25;;;;;;;2.87;nan;100852.91;4991231;28;20038;-75
2021/11/12 12:10:13;;;;;;;44.67;22.90;;;;;;;2.81;nan;100850.66;4988994;28;20141;-75
2021/11/12 12:12:41;;;;;;;43.17;20.50;;;;;;;2.94;nan;100848.97;4983769;28;20452;-75
2021/11/12 12:15:08;;;;;;;42.60;19.90;;;;;;;3.00;nan;100837.28;4989990;28;20062;-75
2021/11/12 12:17:36;;;;;;;43.58;23.02;;;;;;;3.09;nan;100840.16;4990570;28;20034;-75
2021/11/12 12:33:49;;;;;;;44.97;21.20;;;;;;;2.73;nan;100832.84;4988016;28;20492;-75
2021/11/12 13:25:24;;;;;;;37.45;19.40;;;;;;;2.95;nan;100806.22;4988682;28;20038;-75
2021/11/12 13:28:03;;;;;;;39.85;20.20;;;;;;;2.88;nan;100807.56;4988914;28;20534;-75
2021/11/12 13:30:28;;;;;;;43.22;21.77;;;;;;;2.92;nan;100806.44;4989397;28;20048;-75
2021/11/12 13:32:54;;;;;;;39.05;21.17;;;;;;;2.88;nan;100805.78;4988099;28;20034;-75
2021/11/12 13:35:34;;;;;;;34.42;18.80;;;;;;;2.87;nan;100811.09;4989176;28;20034;-75
2021/11/12 13:38:04;;;;;;;33.17;17.80;;;;;;;2.95;nan;100804.44;4989605;28;20042;-75
2021/11/12 13:40:32;;;;;;;35.83;19.30;;;;;;;2.98;nan;100804.28;4987297;28;20042;-75
2021/11/12 13:42:58;;;;;;;38.35;19.63;;;;;;;3.01;nan;100790.19;4987623;28;20442;-75
2021/11/12 13:45:28;;;;;;;32.22;18.23;;;;;;;3.02;nan;100791.03;4988833;28;20121;-76
2021/11/12 13:48:14;;;;;;;45.60;22.37;;;;;;;3.16;nan;100790.97;4987504;28;20042;-75
2021/11/12 13:50:50;;;;;;;41.05;22.42;;;;;;;3.04;nan;100786.53;4984978;28;20299;-76
2021/11/12 13:53:15;;;;;;;41.30;20.33;;;;;;;3.02;nan;100780.56;4988568;28;20042;-76
2021/11/12 13:55:41;;;;;;;35.47;19.92;;;;;;;2.95;nan;100788.78;4987846;28;20117;-76
2021/11/12 13:58:06;;;;;;;38.97;20.38;;;;;;;2.91;nan;100792.53;4988497;28;20064;-75
2021/11/12 14:00:34;;;;;;;35.72;18.80;;;;;;;2.98;nan;100790.38;4988938;28;20065;-76
2021/11/12 14:03:04;;;;;;;38.15;19.17;;;;;;;3.00;nan;100775.44;4987208;28;20042;-76
2021/11/12 14:05:30;;;;;;;37.15;20.80;;;;;;;2.91;nan;100792.53;4987593;28;20046;-76
2021/11/12 14:08:15;;;;;;;47.55;21.48;;;;;;;2.94;nan;100797.56;4987734;28;20322;-75
2021/11/12 14:10:44;;;;;;;43.05;21.48;;;;;;;2.87;nan;100787.59;4989828;28;20459;-76
2021/11/12 14:13:11;;;;;;;40.28;20.88;;;;;;;2.96;nan;100785.25;4987024;28;20499;-76
2021/11/12 14:15:41;;;;;;;45.03;21.30;;;;;;;3.08;nan;100788.88;4991033;28;20407;-75
2021/11/12 14:23:49;;;;;;;34.42;18.90;;;;;;;2.95;nan;100774.88;4989464;28;20034;-76
2021/11/12 14:26:26;;;;;;;42.20;21.75;;;;;;;3.00;nan;100772.00;4989269;28;20039;-75
2021/11/12 14:28:55;;;;;;;38.03;19.77;;;;;;;2.96;nan;100766.97;4992146;28;20372;-76
2021/11/12 14:31:44;;;;;;;41.97;21.88;;;;;;;2.88;nan;100765.75;4988932;28;20045;-76
2021/11/12 14:34:22;;;;;;;42.88;21.27;;;;;;;2.92;nan;100759.41;4989217;28;20042;-75
2021/11/12 14:36:55;;;;;;;39.03;19.92;;;;;;;2.71;nan;100761.59;4988780;28;20030;-75
2021/11/12 14:42:50;;;;;;;45.15;21.20;;;;;;;2.87;nan;100762.31;4993476;28;20097;-76
2021/11/12 14:45:06;;;;;;;40.85;21.50;;;;;;;2.78;nan;100755.06;4980837;28;20050;-76
2021/11/12 14:53:22;;;;;;;44.53;22.05;;;;;;;2.70;nan;100763.38;4987899;28;20121;-76
2021/11/12 14:55:54;;;;;;;45.55;24.10;;;;;;;2.67;nan;100760.97;4988967;28;20301;-75
2021/11/12 14:58:20;;;;;;;46.35;23.40;;;;;;;2.59;nan;100764.97;4988065;28;20561;-76
2021/11/12 15:00:47;;;;;;;40.85;22.35;;;;;;;2.59;nan;100765.81;4988348;28;20494;-76
2021/11/12 15:03:12;;;;;;;43.53;21.42;;;;;;;2.58;nan;100764.13;4987039;28;20141;-76
2021/11/12 15:05:39;;;;;;;42.58;21.48;;;;;;;2.60;nan;100764.03;4989192;28;20034;-76
2021/11/12 15:08:42;;;;;;;43.47;22.80;;;;;;;2.68;nan;100767.00;4988249;28;20042;-76
2021/11/12 15:10:57;;;;;;;39.38;20.35;;;;;;;2.63;nan;100762.06;4979948;28;20697;-75
2021/11/12 15:13:24;;;;;;;38.80;21.27;;;;;;;2.62;nan;100770.84;4989428;28;20129;-76
2021/11/12 15:15:51;;;;;;;40.97;22.52;;;;;;;2.65;nan;100762.00;4991094;28;20053;-77
2021/11/12 15:18:18;;;;;;;48.78;22.77;;;;;;;2.63;nan;100756.03;4988533;28;20030;-76
2021/11/12 15:20:43;;;;;;;46.60;22.88;;;;;;;2.55;nan;100751.25;4990090;28;20507;-75
2021/11/12 15:23:29;;;;;;;50.38;24.38;;;;;;;2.50;nan;100746.34;4986069;28;20042;-75
2021/11/12 15:28:37;;;;;;;48.85;23.90;;;;;;;2.43;nan;100742.44;4990009;28;20522;-75
2021/11/12 15:31:13;;;;;;;45.35;22.90;;;;;;;2.36;nan;100735.06;4988678;28;20077;-75
2021/11/12 15:33:39;;;;;;;48.65;23.35;;;;;;;2.43;nan;100747.66;4987240;28;20034;-75
2021/11/12 15:36:08;;;;;;;44.13;22.50;;;;;;;2.38;nan;100748.84;4986419;28;20049;-75
2021/11/12 15:38:40;;;;;;;43.63;22.00;;;;;;;2.45;nan;100745.75;4992894;28;20547;-75
2021/11/12 15:41:12;;;;;;;;;;;;;;;2.49;nan;100743.81;4988504;28;20046;-75
2021/11/12 15:44:00;;;;;;;44.28;22.00;;;;;;;2.47;nan;100737.84;4989355;28;19918;-75
2021/11/12 15:46:25;;;;;;;53.67;26.05;;;;;;;2.52;nan;100735.78;4988040;28;20030;-75
2021/11/12 15:48:52;;;;;;;48.67;24.48;;;;;;;2.39;nan;100735.72;4990239;28;20034;-74
2021/11/12 15:54:17;;;;;;;48.65;24.58;;;;;;;2.33;nan;100743.91;4988968;28;20034;-74
2021/11/12 15:56:48;;;;;;;44.95;23.30;;;;;;;2.31;nan;100745.78;4984182;28;20042;-74
2021/11/12 16:15:36;;;;;;;43.75;22.85;;;;;;;2.35;nan;100752.50;4993089;28;20076;-75
2021/11/12 16:18:10;;;;;;;41.67;21.77;;;;;;;2.35;nan;100749.88;4989656;28;20089;-75
2021/11/12 16:25:36;;;;;;;43.40;23.00;;;;;;;2.41;nan;100767.78;4993526;28;20380;-75
2021/11/12 16:28:03;;;;;;;53.35;25.95;;;;;;;2.41;nan;100762.56;4993046;28;20088;-75
2021/11/12 16:30:33;;;;;;;43.47;23.75;;;;;;;2.41;nan;100769.53;4991983;28;20101;-75
2021/11/12 16:33:01;;;;;;;44.25;23.60;;;;;;;2.38;nan;100774.94;4992449;28;20102;-75
2021/11/12 16:35:29;;;;;;;42.92;22.67;;;;;;;2.44;nan;100779.81;4991244;28;20038;-75
2021/11/12 16:37:58;;;;;;;41.72;22.98;;;;;;;2.45;nan;100789.31;4990618;28;20381;-75
2021/11/12 16:45:35;;;;;;;45.45;24.58;;;;;;;2.44;nan;100766.75;4993431;28;20427;-74
2021/11/12 16:48:12;;;;;;;43.78;23.38;;;;;;;2.39;nan;100766.19;5006789;28;20125;-74
2021/11/12 17:11:48;;;;;;;51.50;24.35;;;;;;;2.34;nan;100754.25;4988769;28;20485;-76
2021/11/12 17:17:24;;;;;;;50.40;24.45;;;;;;;2.40;nan;100754.81;4991489;28;20048;-76
2021/11/12 17:46:48;;;;;;;51.25;24.85;;;;;;;2.22;nan;100765.44;4992059;28;20046;-76
2021/11/12 21:48:44;;;;;;;36.45;18.45;;;;;;;2.16;nan;100618.88;4987979;28;20454;-76
2021/11/12 21:51:17;;;;;;;31.30;16.13;;;;;;;2.15;nan;100606.78;4992577;28;20121;-76
2021/11/12 21:53:42;;;;;;;30.77;15.80;;;;;;;2.17;nan;100605.75;4995590;28;20511;-76